KDYR

Details ICAO KDYR
Name DYERSBURG RGNL
Region United States
Timezone America/Chicago (UTC-5.0)
Plans Departing 10
Arriving 8
Stats Elevation 338 ft / 103 m (AMSL)
Location 35.998317° -89.406368°
Runways 2
Magnetic Variation 1.894° W
Sunrise 2018-05-27 10:45:43 UTC / 2018-05-27 05:45:43 Local
Sunset 2018-05-28 01:06:47 UTC / 2018-05-27 20:06:47 Local
Advertisement - Login to hide

Runways

ID Width Length Bearing (true) Bearing (mag) Surface Threshold Offset Overrun Length
04 100 ft / 30 m 5,701 ft / 1,738 m 40.41° 42.30° Asphalt 0 ft / 0 m 0 ft / 0 m
16 75 ft / 23 m 4,008 ft / 1,222 m 161.62° 163.51° Asphalt 0 ft / 0 m 0 ft / 0 m
22 100 ft / 30 m 5,701 ft / 1,738 m 220.42° 222.31° Asphalt 694 ft / 212 m 0 ft / 0 m
34 75 ft / 23 m 4,008 ft / 1,222 m 341.62° 343.51° Asphalt 0 ft / 0 m 0 ft / 0 m

Map

Weather


0- 5 10 15 20 25 30 35+ Temperature / ° C

Clouds and Precipitation
Forecast for 2018-05-27 12:00 UTC. Updated 3 hours ago

Ground ~20,000 ft ~40,000 ft Winds

METAR

KDYR 271430Z AUTO 00000KT 2SM HZ CLR 27/23 A2993 RMK AO2 PNO $

TAF

Not found

Frequencies

Recorded 135.62 MHz AWOS 3
Unicom 123.05 MHz CTAF/UNICOM
Warning: Do not use this data for real-world aviation or navigation. No guarantee of current accuracy is given.